createdAt,value
2019-03-03T00:02:09.230Z,6.27
2019-03-03T00:04:39.221Z,5.73
2019-03-03T00:07:10.305Z,6.00
2019-03-03T00:09:41.239Z,6.37
2019-03-03T00:12:11.292Z,6.27
2019-03-03T00:14:41.306Z,5.87
2019-03-03T00:17:11.229Z,6.37
2019-03-03T00:19:41.326Z,6.10
2019-03-03T00:22:11.924Z,6.50
2019-03-03T00:24:41.949Z,5.70
2019-03-03T00:27:11.935Z,6.10
2019-03-03T00:29:41.807Z,6.63
2019-03-03T00:32:11.747Z,7.17
2019-03-03T00:34:41.802Z,6.40
2019-03-03T00:37:23.853Z,6.67
2019-03-03T00:40:15.612Z,7.30
2019-03-03T00:42:54.325Z,6.23
2019-03-03T00:45:58.709Z,7.63
2019-03-03T00:48:34.738Z,6.53
2019-03-03T00:51:10.997Z,7.03
2019-03-03T00:54:09.076Z,6.60
2019-03-03T00:56:45.213Z,5.83
2019-03-03T00:59:22.951Z,6.90
2019-03-03T01:02:01.498Z,6.43
2019-03-03T01:04:49.332Z,5.73
2019-03-03T01:07:27.904Z,6.10
2019-03-03T01:10:14.944Z,5.47
2019-03-03T01:13:02.252Z,5.90
2019-03-03T01:15:52.277Z,5.83
2019-03-03T01:18:38.603Z,5.90
2019-03-03T01:21:14.818Z,6.23
2019-03-03T01:24:12.559Z,5.73
2019-03-03T01:26:42.469Z,5.63
2019-03-03T01:29:13.188Z,5.73
2019-03-03T01:31:43.077Z,5.53
2019-03-03T01:34:14.836Z,5.73
2019-03-03T01:36:44.717Z,5.53
2019-03-03T01:39:14.672Z,6.10
2019-03-03T01:41:44.582Z,5.43
2019-03-03T01:44:14.526Z,5.90
2019-03-03T01:46:44.498Z,4.03
2019-03-03T01:49:14.389Z,5.37
2019-03-03T01:51:44.478Z,5.73
2019-03-03T01:54:15.508Z,6.10
2019-03-03T01:56:45.375Z,5.13
2019-03-03T01:59:15.269Z,5.47
2019-03-03T02:01:45.207Z,4.80
2019-03-03T02:04:16.154Z,5.50
2019-03-03T02:06:46.106Z,5.70
2019-03-03T02:09:16.072Z,5.17
2019-03-03T02:11:46.097Z,5.17
2019-03-03T02:14:16.017Z,5.00
2019-03-03T02:16:45.907Z,4.60
2019-03-03T02:19:15.884Z,5.00
2019-03-03T02:21:45.869Z,4.90
2019-03-03T02:24:16.193Z,5.40
2019-03-03T02:26:46.020Z,4.73
2019-03-03T02:29:15.972Z,4.93
2019-03-03T02:31:45.950Z,5.30
2019-03-03T02:34:15.892Z,4.47
2019-03-03T02:36:45.855Z,4.67
2019-03-03T02:39:19.405Z,4.90
2019-03-03T02:41:49.295Z,4.60
2019-03-03T02:44:19.414Z,4.60
2019-03-03T02:46:49.445Z,4.20
2019-03-03T02:49:19.465Z,5.00
2019-03-03T02:51:49.332Z,3.50
2019-03-03T02:54:19.289Z,5.10
2019-03-03T02:56:49.222Z,4.47
2019-03-03T02:59:19.133Z,4.40
2019-03-03T03:01:55.832Z,4.67
2019-03-03T03:04:26.405Z,4.10
2019-03-03T03:07:01.907Z,4.30
2019-03-03T03:09:47.844Z,3.93
2019-03-03T03:12:29.482Z,4.20
2019-03-03T03:15:27.784Z,3.97
2019-03-03T03:18:13.758Z,3.80
2019-03-03T03:20:51.810Z,3.63
2019-03-03T03:23:35.200Z,4.63
2019-03-03T03:26:22.541Z,4.47
2019-03-03T03:28:59.706Z,3.90
2019-03-03T03:32:03.649Z,3.90
2019-03-03T03:34:38.227Z,4.10
2019-03-03T03:37:14.225Z,4.13
2019-03-03T03:40:12.287Z,4.17
2019-03-03T03:43:13.176Z,4.20
2019-03-03T03:46:09.633Z,4.10
2019-03-03T03:49:02.432Z,4.60
2019-03-03T03:51:50.923Z,4.27
2019-03-03T03:54:58.113Z,4.50
2019-03-03T03:57:47.179Z,4.00
2019-03-03T04:00:32.886Z,4.07
2019-03-03T04:03:37.425Z,4.53
2019-03-03T04:06:29.321Z,4.53
2019-03-03T04:09:16.894Z,4.23
2019-03-03T04:11:57.323Z,4.93
2019-03-03T04:14:43.253Z,4.87
2019-03-03T04:17:28.993Z,4.83
2019-03-03T04:20:18.040Z,5.07
2019-03-03T04:23:05.856Z,4.60
2019-03-03T04:25:53.566Z,4.90
2019-03-03T04:28:49.031Z,4.87
2019-03-03T04:31:53.410Z,5.00
2019-03-03T04:34:44.958Z,5.20
2019-03-03T04:37:32.388Z,4.43
2019-03-03T04:40:13.312Z,4.93
2019-03-03T04:43:11.377Z,4.83
2019-03-03T04:45:54.403Z,5.30
2019-03-03T04:48:29.705Z,4.57
2019-03-03T04:51:12.665Z,4.70
2019-03-03T04:54:13.542Z,4.73
2019-03-03T04:57:20.718Z,4.80
2019-03-03T05:00:15.417Z,4.73
2019-03-03T05:03:16.532Z,4.20
2019-03-03T05:06:11.656Z,4.67
2019-03-03T05:08:55.164Z,4.40
2019-03-03T05:12:23.461Z,4.20
2019-03-03T05:14:56.562Z,4.10
2019-03-03T05:17:33.485Z,3.77
2019-03-03T05:20:03.653Z,4.30
2019-03-03T05:22:33.592Z,3.87
2019-03-03T05:25:03.567Z,3.73
2019-03-03T05:27:33.550Z,3.80
2019-03-03T05:30:03.843Z,3.93
2019-03-03T05:32:33.805Z,3.30
2019-03-03T05:35:03.790Z,3.77
2019-03-03T05:37:33.656Z,3.60
2019-03-03T05:40:03.797Z,3.50
2019-03-03T05:42:33.748Z,3.80
2019-03-03T05:45:03.761Z,3.50
2019-03-03T05:47:33.584Z,3.40
2019-03-03T05:50:03.668Z,3.43
2019-03-03T05:52:33.488Z,3.27
2019-03-03T05:55:03.448Z,3.60
2019-03-03T05:57:33.336Z,3.80
2019-03-03T06:00:03.444Z,3.70
2019-03-03T06:02:33.286Z,3.27
2019-03-03T06:05:03.177Z,3.80
2019-03-03T06:07:33.171Z,4.10
2019-03-03T06:10:03.198Z,3.67
2019-03-03T06:12:33.016Z,3.70
2019-03-03T06:15:03.583Z,3.60
2019-03-03T06:17:33.492Z,3.53
2019-03-03T06:20:03.527Z,3.97
2019-03-03T06:22:33.409Z,3.93
2019-03-03T06:25:03.356Z,3.20
2019-03-03T06:27:33.193Z,3.50
2019-03-03T06:30:03.089Z,3.57
2019-03-03T06:32:32.943Z,3.30
2019-03-03T06:35:02.885Z,3.50
2019-03-03T06:37:32.749Z,3.20
2019-03-03T06:40:02.653Z,3.40
2019-03-03T06:42:32.599Z,3.13
2019-03-03T06:45:02.487Z,3.03
2019-03-03T06:47:32.440Z,3.00
2019-03-03T06:50:03.375Z,3.20
2019-03-03T06:52:33.285Z,3.10
2019-03-03T06:55:03.118Z,2.53
2019-03-03T06:57:33.060Z,2.60
2019-03-03T07:00:03.406Z,2.73
2019-03-03T07:02:33.404Z,2.60
2019-03-03T07:05:03.526Z,2.23
2019-03-03T07:07:33.412Z,1.60
2019-03-03T07:10:03.354Z,2.27
2019-03-03T07:12:33.278Z,2.23
2019-03-03T07:15:03.257Z,1.90
2019-03-03T07:17:33.244Z,2.00
2019-03-03T07:20:03.226Z,2.00
2019-03-03T07:22:33.196Z,1.60
2019-03-03T07:25:03.180Z,1.67
2019-03-03T07:27:33.143Z,2.00
2019-03-03T07:30:03.161Z,1.80
2019-03-03T07:32:34.913Z,1.87
2019-03-03T07:35:05.043Z,1.80
2019-03-03T07:37:34.957Z,1.80
2019-03-03T07:40:05.843Z,2.30
2019-03-03T07:42:35.781Z,2.10
2019-03-03T07:45:06.288Z,2.07
2019-03-03T07:47:36.179Z,1.80
2019-03-03T07:50:06.486Z,1.90
2019-03-03T07:52:36.350Z,1.90
2019-03-03T07:55:06.724Z,2.07
2019-03-03T07:57:36.696Z,1.80
2019-03-03T08:00:08.611Z,2.10
2019-03-03T08:02:38.648Z,1.70
2019-03-03T08:05:08.741Z,2.27
2019-03-03T08:07:38.786Z,2.27
2019-03-03T08:10:09.849Z,2.03
2019-03-03T08:12:39.813Z,2.10
2019-03-03T08:15:09.804Z,2.10
2019-03-03T08:17:40.405Z,2.20
2019-03-03T08:20:11.793Z,1.90
2019-03-03T08:22:41.769Z,1.90
2019-03-03T08:25:12.861Z,1.60
2019-03-03T08:27:43.890Z,1.47
2019-03-03T08:30:13.900Z,2.20
2019-03-03T08:32:43.914Z,2.00
2019-03-03T08:35:14.646Z,2.17
2019-03-03T08:37:44.635Z,2.20
2019-03-03T08:40:15.530Z,1.87
2019-03-03T08:42:53.468Z,1.63
2019-03-03T08:45:45.924Z,1.67
2019-03-03T08:48:33.274Z,2.00
2019-03-03T08:51:15.184Z,2.10
2019-03-03T08:53:53.482Z,2.10
2019-03-03T08:56:34.099Z,1.93
2019-03-03T08:59:10.378Z,1.80
2019-03-03T09:01:58.520Z,1.70
2019-03-03T09:04:53.600Z,1.83
2019-03-03T09:07:35.352Z,2.00
2019-03-03T09:10:13.015Z,2.13
2019-03-03T09:12:51.470Z,2.03
2019-03-03T09:15:46.242Z,1.97
2019-03-03T09:18:35.251Z,1.80
2019-03-03T09:21:30.101Z,1.70
2019-03-03T09:24:22.035Z,2.03
2019-03-03T09:27:04.780Z,1.43
2019-03-03T09:30:02.938Z,2.20
2019-03-03T09:32:51.968Z,1.97
2019-03-03T09:35:33.769Z,2.10
2019-03-03T09:38:12.113Z,1.80
2019-03-03T09:41:05.434Z,1.83
2019-03-03T09:43:46.575Z,1.80
2019-03-03T09:46:26.671Z,1.70
2019-03-03T09:49:27.994Z,1.60
2019-03-03T09:52:14.543Z,1.87
2019-03-03T09:55:07.387Z,1.67
2019-03-03T09:57:45.897Z,2.10
2019-03-03T10:00:34.293Z,1.90
2019-03-03T10:03:16.974Z,1.90
2019-03-03T10:06:01.200Z,1.30
2019-03-03T10:09:03.460Z,1.50
2019-03-03T10:11:52.869Z,1.63
2019-03-03T10:14:40.698Z,1.60
2019-03-03T10:17:29.874Z,1.47
2019-03-03T10:20:21.750Z,1.33
2019-03-03T10:23:16.829Z,1.50
2019-03-03T10:26:13.154Z,1.57
2019-03-03T10:28:56.892Z,1.13
2019-03-03T10:31:39.894Z,1.50
2019-03-03T10:34:15.007Z,1.30
2019-03-03T10:37:22.318Z,1.10
2019-03-03T10:40:12.724Z,1.40
2019-03-03T10:43:00.150Z,1.60
2019-03-03T10:45:50.197Z,1.00
2019-03-03T10:48:37.964Z,1.13
2019-03-03T10:51:25.837Z,1.37
2019-03-03T10:54:06.939Z,1.00
2019-03-03T10:56:46.147Z,1.33
2019-03-03T10:59:30.016Z,1.30
2019-03-03T11:02:14.964Z,1.53
2019-03-03T11:05:13.103Z,1.13
2019-03-03T11:08:10.194Z,1.10
2019-03-03T11:10:57.768Z,1.23
2019-03-03T11:13:47.141Z,0.80
2019-03-03T11:16:43.570Z,1.53
2019-03-03T11:19:20.194Z,1.23
2019-03-03T11:22:09.192Z,1.20
2019-03-03T11:24:57.328Z,1.10
2019-03-03T11:27:36.061Z,1.30
2019-03-03T11:30:09.366Z,1.30
2019-03-03T11:32:56.953Z,1.37
2019-03-03T11:35:51.702Z,1.20
2019-03-03T11:38:49.774Z,1.30
2019-03-03T11:41:38.764Z,1.73
2019-03-03T11:44:21.397Z,1.47
2019-03-03T11:47:07.844Z,1.30
2019-03-03T11:50:03.238Z,1.70
2019-03-03T11:52:45.717Z,1.40
2019-03-03T11:55:44.060Z,1.30
2019-03-03T11:58:31.651Z,1.40
2019-03-03T12:01:20.748Z,1.40
2019-03-03T12:04:06.887Z,1.43
2019-03-03T12:06:44.224Z,1.20
2019-03-03T12:09:32.227Z,1.70
2019-03-03T12:12:36.277Z,1.53
2019-03-03T12:15:35.157Z,1.40
2019-03-03T12:18:20.463Z,1.60
2019-03-03T12:21:12.491Z,1.50
2019-03-03T12:23:54.396Z,1.30
2019-03-03T12:26:43.003Z,1.37
2019-03-03T12:29:22.865Z,1.33
2019-03-03T12:32:11.574Z,1.20
2019-03-03T12:35:06.684Z,1.30
2019-03-03T12:37:48.120Z,1.33
2019-03-03T12:40:37.035Z,1.10
2019-03-03T12:43:16.427Z,1.30
2019-03-03T12:45:56.719Z,1.13
2019-03-03T12:48:36.715Z,1.20
2019-03-03T12:51:24.351Z,1.17
2019-03-03T12:54:05.112Z,1.40
2019-03-03T12:57:00.098Z,1.30
2019-03-03T12:59:41.316Z,1.07
2019-03-03T13:02:29.147Z,1.47
2019-03-03T13:05:18.114Z,1.30
2019-03-03T13:07:54.628Z,1.17
2019-03-03T13:10:42.161Z,1.10
2019-03-03T13:13:32.646Z,1.03
2019-03-03T13:16:27.568Z,1.27
2019-03-03T13:19:16.481Z,1.33
2019-03-03T13:22:18.069Z,1.37
2019-03-03T13:24:57.848Z,1.40
2019-03-03T13:27:54.327Z,0.97
2019-03-03T13:30:55.398Z,1.47
2019-03-03T13:33:50.988Z,1.50
2019-03-03T13:36:38.931Z,1.10
2019-03-03T13:39:48.128Z,1.60
2019-03-03T13:42:27.738Z,1.50
2019-03-03T13:44:57.608Z,1.70
2019-03-03T13:47:28.262Z,1.80
2019-03-03T13:49:58.262Z,1.43
2019-03-03T13:52:28.283Z,1.53
2019-03-03T13:54:58.279Z,1.50
2019-03-03T13:57:30.866Z,1.60
2019-03-03T14:00:02.305Z,1.80
2019-03-03T14:02:34.979Z,1.40
2019-03-03T14:05:05.845Z,1.13
2019-03-03T14:07:35.810Z,1.87
2019-03-03T14:10:07.795Z,1.17
2019-03-03T14:12:38.484Z,1.20
2019-03-03T14:15:10.002Z,1.50
2019-03-03T14:17:40.366Z,0.90
2019-03-03T14:20:13.448Z,1.10
2019-03-03T14:22:43.418Z,1.13
2019-03-03T14:25:14.000Z,1.27
2019-03-03T14:27:44.060Z,1.30
2019-03-03T14:30:16.444Z,1.30
2019-03-03T14:32:46.472Z,1.70
2019-03-03T14:35:16.874Z,1.40
2019-03-03T14:37:46.857Z,1.33
2019-03-03T14:40:17.763Z,2.80
2019-03-03T14:42:48.029Z,0.83
2019-03-03T14:45:18.361Z,1.20
2019-03-03T14:47:49.479Z,1.00
2019-03-03T14:50:19.926Z,1.63
2019-03-03T14:52:50.385Z,1.20
2019-03-03T14:55:20.523Z,1.23
2019-03-03T14:57:50.488Z,1.30
2019-03-03T15:00:27.946Z,1.30
2019-03-03T15:02:59.412Z,1.20
2019-03-03T15:05:29.618Z,1.50
2019-03-03T15:07:59.670Z,1.20
2019-03-03T15:10:29.672Z,1.40
2019-03-03T15:13:00.196Z,1.50
2019-03-03T15:15:31.115Z,1.17
2019-03-03T15:18:01.285Z,1.50
2019-03-03T15:20:31.770Z,1.40
2019-03-03T15:23:01.746Z,1.10
2019-03-03T15:25:31.820Z,1.13
2019-03-03T15:28:01.825Z,1.37
2019-03-03T15:30:32.443Z,1.30
2019-03-03T15:33:02.362Z,1.20
2019-03-03T15:35:32.388Z,0.90
2019-03-03T15:38:02.414Z,1.27
2019-03-03T15:40:32.485Z,1.40
2019-03-03T15:43:02.583Z,1.50
2019-03-03T15:45:32.624Z,1.00
2019-03-03T15:48:02.650Z,1.43
2019-03-03T15:50:32.639Z,1.40
2019-03-03T15:53:02.776Z,1.10
2019-03-03T15:55:32.869Z,1.20
2019-03-03T15:58:02.846Z,1.33
2019-03-03T16:00:33.866Z,1.10
2019-03-03T16:03:04.242Z,1.20
2019-03-03T16:05:34.188Z,1.20
2019-03-03T16:08:04.229Z,1.10
2019-03-03T16:10:34.071Z,1.13
2019-03-03T16:13:04.144Z,1.33
2019-03-03T16:15:34.141Z,1.13
2019-03-03T16:18:04.139Z,1.20
2019-03-03T16:20:34.159Z,1.20
2019-03-03T16:23:04.205Z,1.30
2019-03-03T16:25:34.233Z,1.40
2019-03-03T16:28:04.240Z,1.40
2019-03-03T16:30:34.264Z,1.20
2019-03-03T16:33:04.199Z,1.10
2019-03-03T16:35:35.227Z,1.30
2019-03-03T16:38:05.221Z,1.37
2019-03-03T16:40:39.635Z,1.00
2019-03-03T16:43:07.045Z,1.10
2019-03-03T16:45:37.019Z,1.50
2019-03-03T16:48:06.990Z,1.40
2019-03-03T16:50:37.034Z,1.30
2019-03-03T16:53:07.065Z,1.17
2019-03-03T16:55:37.027Z,1.50
2019-03-03T16:58:07.063Z,1.20
2019-03-03T17:00:36.960Z,1.40
2019-03-03T17:03:07.020Z,1.43
2019-03-03T17:05:37.082Z,1.50
2019-03-03T17:08:07.043Z,1.50
2019-03-03T17:10:36.907Z,1.70
2019-03-03T17:13:07.037Z,1.80
2019-03-03T17:15:37.025Z,2.10
2019-03-03T17:18:07.126Z,2.30
2019-03-03T17:20:36.988Z,2.13
2019-03-03T17:23:06.977Z,1.70
2019-03-03T17:25:36.981Z,1.60
2019-03-03T17:28:07.016Z,1.27
2019-03-03T17:30:37.118Z,1.57
2019-03-03T17:33:07.050Z,1.23
2019-03-03T17:35:37.011Z,1.60
2019-03-03T17:38:07.013Z,1.80
2019-03-03T17:40:36.899Z,1.37
2019-03-03T17:43:06.924Z,1.60
2019-03-03T17:45:37.047Z,1.60
2019-03-03T17:48:07.058Z,1.50
2019-03-03T17:50:37.115Z,1.40
2019-03-03T17:53:07.040Z,1.57
2019-03-03T17:55:37.110Z,1.63
2019-03-03T17:58:07.050Z,1.50
2019-03-03T18:00:38.677Z,1.70
2019-03-03T18:03:08.664Z,1.30
2019-03-03T18:05:38.732Z,1.67
2019-03-03T18:08:08.754Z,1.50
2019-03-03T18:10:38.788Z,1.70
2019-03-03T18:13:08.790Z,1.50
2019-03-03T18:15:38.760Z,1.50
2019-03-03T18:18:08.731Z,1.60
2019-03-03T18:20:38.772Z,1.70
2019-03-03T18:23:08.812Z,1.90
2019-03-03T18:25:39.517Z,1.60
2019-03-03T18:28:10.336Z,1.43
2019-03-03T18:30:40.659Z,1.40
2019-03-03T18:33:11.704Z,1.47
2019-03-03T18:35:41.535Z,1.60
2019-03-03T18:38:11.428Z,1.63
2019-03-03T18:40:41.416Z,1.77
2019-03-03T18:43:12.432Z,1.67
2019-03-03T18:45:42.418Z,1.70
2019-03-03T18:48:12.688Z,1.70
2019-03-03T18:50:42.671Z,1.50
2019-03-03T18:53:12.741Z,1.70
2019-03-03T18:55:43.763Z,1.63
2019-03-03T18:58:13.746Z,1.83
2019-03-03T19:00:43.756Z,1.30
2019-03-03T19:03:13.882Z,1.80
2019-03-03T19:05:43.891Z,1.83
2019-03-03T19:08:13.767Z,2.17
2019-03-03T19:10:43.711Z,1.83
2019-03-03T19:13:13.734Z,1.80
2019-03-03T19:15:43.778Z,1.90
2019-03-03T19:18:13.778Z,1.70
2019-03-03T19:20:43.720Z,1.63
2019-03-03T19:23:13.605Z,1.30
2019-03-03T19:25:43.620Z,1.43
2019-03-03T19:28:13.487Z,1.50
2019-03-03T19:30:43.520Z,1.60
2019-03-03T19:33:35.022Z,1.60
2019-03-03T19:36:06.142Z,1.63
2019-03-03T19:38:36.135Z,1.50
2019-03-03T19:41:06.173Z,1.60
2019-03-03T19:43:36.141Z,1.50
2019-03-03T19:46:06.610Z,1.77
2019-03-03T19:48:36.684Z,1.60
2019-03-03T19:51:06.803Z,1.50
2019-03-03T19:53:36.864Z,1.90
2019-03-03T19:56:06.900Z,1.60
2019-03-03T19:58:36.883Z,1.90
2019-03-03T20:01:07.235Z,1.70
2019-03-03T20:03:37.195Z,1.70
2019-03-03T20:06:07.248Z,1.70
2019-03-03T20:08:37.149Z,1.70
2019-03-03T20:11:08.043Z,1.50
2019-03-03T20:13:38.167Z,1.80
2019-03-03T20:16:08.101Z,1.40
2019-03-03T20:18:38.128Z,1.57
2019-03-03T20:21:08.110Z,1.30
2019-03-03T20:23:37.993Z,1.50
2019-03-03T20:26:08.394Z,1.60
2019-03-03T20:28:38.676Z,1.60
2019-03-03T20:31:08.721Z,1.70
2019-03-03T20:33:38.689Z,1.40
2019-03-03T20:36:09.794Z,1.43
2019-03-03T20:38:39.792Z,1.63
2019-03-03T20:41:09.759Z,1.30
2019-03-03T20:43:39.745Z,1.67
2019-03-03T20:46:09.800Z,1.33
2019-03-03T20:48:39.823Z,1.60
2019-03-03T20:51:09.774Z,1.93
2019-03-03T20:53:39.783Z,1.47
2019-03-03T20:56:09.773Z,1.67
2019-03-03T20:58:39.799Z,1.43
2019-03-03T21:01:09.777Z,1.30
2019-03-03T21:03:39.689Z,1.40
2019-03-03T21:06:09.746Z,1.70
2019-03-03T21:08:39.705Z,1.50
2019-03-03T21:11:09.578Z,1.60
2019-03-03T21:13:39.488Z,1.37
2019-03-03T21:16:09.458Z,1.57
2019-03-03T21:18:39.320Z,1.43
2019-03-03T21:21:09.684Z,1.20
2019-03-03T21:23:39.614Z,1.63
2019-03-03T21:26:09.636Z,1.90
2019-03-03T21:28:39.488Z,1.43
2019-03-03T21:31:09.521Z,1.70
2019-03-03T21:33:39.422Z,1.70
2019-03-03T21:36:09.269Z,1.43
2019-03-03T21:38:39.153Z,1.50
2019-03-03T21:41:09.044Z,1.50
2019-03-03T21:43:39.020Z,1.73
2019-03-03T21:46:09.019Z,1.60
2019-03-03T21:48:38.972Z,1.40
2019-03-03T21:51:08.997Z,1.37
2019-03-03T21:53:38.958Z,1.50
2019-03-03T21:56:08.867Z,1.43
2019-03-03T21:58:38.889Z,1.30
2019-03-03T22:01:08.859Z,1.43
2019-03-03T22:03:40.500Z,1.60
2019-03-03T22:06:10.401Z,1.20
2019-03-03T22:08:40.283Z,1.70
2019-03-03T22:11:10.337Z,1.60
2019-03-03T22:13:40.386Z,1.53
2019-03-03T22:16:10.328Z,1.60
2019-03-03T22:18:40.348Z,1.40
2019-03-03T22:21:10.361Z,1.67
2019-03-03T22:23:40.223Z,1.57
2019-03-03T22:26:10.219Z,1.40
2019-03-03T22:28:40.175Z,1.60
2019-03-03T22:31:10.293Z,1.43
2019-03-03T22:33:40.327Z,1.60
2019-03-03T22:36:10.504Z,1.37
2019-03-03T22:38:41.574Z,1.60
2019-03-03T22:41:11.546Z,1.70
2019-03-03T22:43:41.382Z,1.90
2019-03-03T22:46:11.329Z,1.70
2019-03-03T22:48:41.187Z,1.87
2019-03-03T22:51:11.147Z,1.73
2019-03-03T22:53:41.052Z,2.03
2019-03-03T22:56:11.011Z,2.13
2019-03-03T22:58:40.924Z,2.20
2019-03-03T23:01:15.357Z,2.20
2019-03-03T23:04:17.003Z,2.20
2019-03-03T23:06:55.440Z,2.13
2019-03-03T23:10:11.159Z,2.33
2019-03-03T23:12:49.345Z,2.27
2019-03-03T23:15:39.202Z,2.10
2019-03-03T23:18:27.756Z,2.27
2019-03-03T23:21:25.631Z,1.93
2019-03-03T23:24:31.637Z,2.07
2019-03-03T23:27:01.452Z,2.40
2019-03-03T23:29:31.419Z,1.97
2019-03-03T23:32:01.325Z,1.80
2019-03-03T23:34:31.330Z,2.10
2019-03-03T23:37:01.290Z,2.20
2019-03-03T23:39:31.119Z,1.90
2019-03-03T23:42:00.996Z,1.90
2019-03-03T23:44:30.912Z,1.70
2019-03-03T23:47:00.843Z,1.50
2019-03-03T23:49:30.740Z,1.50
2019-03-03T23:52:00.632Z,1.53
2019-03-03T23:54:30.541Z,1.60
2019-03-03T23:57:00.486Z,1.80
2019-03-03T23:59:30.344Z,1.70
